Time;durP1;ratioP1;P1;durP2;ratioP2;P2;SDS_P1;SDS_P2;PMS_P1;PMS_P2;Temp;Humidity;BMP_temperature;BMP_pressure;BME280_temperature;BME280_humidity;BME280_pressure;Samples;Min_cycle;Max_cycle;Signal;HPM_P1;HPM_P2
2023/05/13 00:02:09;;;;;;;18.70;7.80;;;;;;;-144.73;100.00;54300.97;5013062;28;20072;-69
2023/05/13 00:04:34;;;;;;;22.60;7.43;;;;;;;-144.73;100.00;54276.34;5013256;28;20064;-69
2023/05/13 00:06:59;;;;;;;12.23;7.10;;;;;;;-144.73;100.00;54309.19;5031123;28;20091;-69
2023/05/13 00:09:25;;;;;;;21.63;7.45;;;;;;;-144.73;100.00;54292.75;5013846;28;20029;-69
2023/05/13 00:11:50;;;;;;;21.50;7.85;;;;;;;-144.73;100.00;54251.72;5013930;28;20124;-69
2023/05/13 00:14:15;;;;;;;15.48;7.20;;;;;;;-144.73;100.00;54280.44;5031549;28;20071;-69
2023/05/13 00:16:41;;;;;;;19.65;7.80;;;;;;;-144.73;100.00;54239.41;5014034;28;20029;-67
2023/05/13 00:19:07;;;;;;;16.95;8.30;;;;;;;-144.73;100.00;54251.72;5013227;28;20033;-67
2023/05/13 00:21:33;;;;;;;22.67;7.47;;;;;;;-144.73;100.00;54337.91;5013761;28;20037;-67
2023/05/13 00:23:58;;;;;;;22.45;7.95;;;;;;;-144.73;100.00;54276.34;5031738;28;20038;-67
2023/05/13 00:26:24;;;;;;;18.42;7.18;;;;;;;-144.73;100.00;54342.03;5013461;28;20035;-67
2023/05/13 00:28:49;;;;;;;21.33;7.35;;;;;;;-144.73;100.00;54264.03;5013874;28;20071;-67
2023/05/13 00:31:15;;;;;;;13.15;7.10;;;;;;;-144.73;100.00;54251.72;5031725;28;20071;-67
2023/05/13 00:33:40;;;;;;;14.90;7.32;;;;;;;-144.73;100.00;54259.91;5014296;28;20034;-67
2023/05/13 00:36:08;;;;;;;18.75;7.32;;;;;;;-144.73;100.00;54307.13;5013686;28;20119;-67
2023/05/13 00:38:34;;;;;;;20.17;7.53;;;;;;;-144.73;100.00;54286.59;5013762;28;20036;-68
2023/05/13 00:41:01;;;;;;;18.70;7.60;;;;;;;-144.73;100.00;54276.34;5013260;28;20038;-67
2023/05/13 00:43:26;;;;;;;30.42;7.82;;;;;;;-144.73;100.00;54233.25;5013464;28;20048;-67
2023/05/13 00:45:51;;;;;;;16.83;7.55;;;;;;;-144.73;100.00;54288.66;5031407;28;20619;-67
2023/05/13 00:48:17;;;;;;;23.65;7.95;;;;;;;-144.73;100.00;54268.13;5013389;28;20017;-67
2023/05/13 00:50:43;;;;;;;13.60;7.70;;;;;;;-144.73;100.00;54296.88;5013965;28;20376;-67
2023/05/13 00:53:11;;;;;;;24.83;8.35;;;;;;;-144.73;100.00;54278.41;5013444;28;20037;-67
2023/05/13 00:55:40;;;;;;;18.40;7.97;;;;;;;-144.73;100.00;54247.59;5013781;28;20025;-68
2023/05/13 00:58:05;;;;;;;17.45;8.10;;;;;;;-144.73;100.00;54264.03;5013038;28;20038;-67
2023/05/13 01:00:34;;;;;;;24.67;7.72;;;;;;;-144.73;100.00;54309.19;5015113;28;20033;-68
2023/05/13 01:03:12;;;;;;;21.48;7.60;;;;;;;-144.73;100.00;54276.34;5016338;28;20400;-68
2023/05/13 01:05:53;;;;;;;17.13;8.05;;;;;;;-144.73;100.00;54290.72;5017315;28;20064;-67
2023/05/13 01:08:49;;;;;;;16.38;8.23;;;;;;;-144.73;100.00;54280.44;5016672;28;20041;-67
2023/05/13 01:11:21;;;;;;;19.83;8.40;;;;;;;-144.73;100.00;54251.72;5016191;28;20039;-67
2023/05/13 01:13:50;;;;;;;19.40;8.25;;;;;;;-144.73;100.00;54282.50;5016664;28;20033;-67
2023/05/13 01:16:45;;;;;;;19.60;8.68;;;;;;;-144.73;100.00;54296.88;5016690;28;20029;-68
2023/05/13 01:19:34;;;;;;;19.88;8.40;;;;;;;-144.73;100.00;54280.44;5013662;28;20044;-68
2023/05/13 01:22:00;;;;;;;21.08;8.07;;;;;;;-144.73;100.00;54300.97;5033915;28;20033;-67
2023/05/13 01:24:25;;;;;;;22.05;8.77;;;;;;;-144.73;100.00;54305.06;5016732;28;20028;-68
2023/05/13 01:26:51;;;;;;;20.02;9.27;;;;;;;-144.73;100.00;54259.91;5034022;28;20033;-68
2023/05/13 01:29:16;;;;;;;17.85;8.77;;;;;;;-144.73;100.00;54311.22;5016600;28;20086;-68
2023/05/13 01:31:42;;;;;;;22.50;10.07;;;;;;;-144.73;100.00;54290.72;5016326;28;20063;-67
2023/05/13 01:34:10;;;;;;;15.60;9.25;;;;;;;-144.73;100.00;54321.50;5016701;28;20117;-68
2023/05/13 01:36:38;;;;;;;23.48;9.90;;;;;;;-144.73;100.00;54243.50;5034307;28;20037;-67
2023/05/13 01:39:04;;;;;;;25.30;10.70;;;;;;;-144.73;100.00;54259.91;5033186;28;20103;-67
2023/05/13 01:41:30;;;;;;;28.65;10.40;;;;;;;-144.73;100.00;54342.03;5016254;28;20065;-67
2023/05/13 01:43:56;;;;;;;19.77;9.40;;;;;;;-144.73;100.00;54280.44;5016436;28;20025;-67
2023/05/13 01:46:21;;;;;;;18.48;10.27;;;;;;;-144.73;100.00;54276.34;5015915;28;20052;-68
2023/05/13 01:48:47;;;;;;;23.27;11.70;;;;;;;-144.73;100.00;54251.72;5016293;28;20022;-68
2023/05/13 01:51:12;;;;;;;21.33;10.80;;;;;;;-144.73;100.00;54288.66;5015649;28;20045;-67
2023/05/13 01:53:37;;;;;;;32.92;12.38;;;;;;;-144.73;100.00;54305.06;5015706;28;20036;-68
2023/05/13 01:56:03;;;;;;;25.63;12.63;;;;;;;-144.73;100.00;54292.75;5015855;28;20029;-68
2023/05/13 01:58:28;;;;;;;22.85;11.80;;;;;;;-144.73;100.00;54276.34;5015819;28;20057;-67
2023/05/13 02:00:54;;;;;;;20.38;11.55;;;;;;;-144.73;100.00;54266.06;5014682;28;20030;-67
2023/05/13 02:03:19;;;;;;;24.00;11.88;;;;;;;-144.73;100.00;54276.34;5033747;28;20029;-67
2023/05/13 02:05:46;;;;;;;23.38;12.95;;;;;;;-144.73;100.00;54303.03;5033471;28;20080;-67
2023/05/13 02:08:11;;;;;;;33.90;12.73;;;;;;;-144.73;100.00;54307.13;5033068;28;20033;-67
2023/05/13 02:10:37;;;;;;;25.83;13.73;;;;;;;-144.73;100.00;54251.72;5015455;28;20071;-67
2023/05/13 02:13:02;;;;;;;25.08;13.38;;;;;;;-144.73;100.00;54288.66;5031985;28;20079;-68
2023/05/13 02:15:28;;;;;;;24.38;11.93;;;;;;;-144.73;100.00;54305.06;5015054;28;20116;-68
2023/05/13 02:17:53;;;;;;;24.15;12.75;;;;;;;-144.73;100.00;54251.72;5015517;28;20121;-67
2023/05/13 02:20:19;;;;;;;27.33;13.20;;;;;;;-144.73;100.00;54259.91;5015593;28;20040;-68
2023/05/13 02:22:44;;;;;;;20.48;12.02;;;;;;;-144.73;100.00;54296.88;5015637;28;20500;-67
2023/05/13 02:25:09;;;;;;;30.85;13.55;;;;;;;-144.73;100.00;54288.66;5033651;28;20021;-68
2023/05/13 02:27:35;;;;;;;25.38;13.82;;;;;;;-144.73;100.00;54300.97;5015417;28;20053;-68
2023/05/13 02:30:01;;;;;;;26.90;14.05;;;;;;;-144.73;100.00;54288.66;5015358;28;20108;-67
2023/05/13 02:32:26;;;;;;;25.27;12.68;;;;;;;-144.73;100.00;54290.72;5014859;28;20049;-68
2023/05/13 02:34:51;;;;;;;28.13;13.25;;;;;;;-144.73;100.00;54255.81;5014962;28;20029;-67
2023/05/13 02:37:17;;;;;;;29.65;13.25;;;;;;;-144.73;100.00;54276.34;5015054;28;20053;-68
2023/05/13 02:39:42;;;;;;;27.98;14.00;;;;;;;-144.73;100.00;54280.44;5032425;28;20017;-68
2023/05/13 02:42:07;;;;;;;25.85;13.68;;;;;;;-144.73;100.00;54266.06;5014891;28;20025;-68
2023/05/13 02:44:33;;;;;;;35.83;15.50;;;;;;;-144.73;100.00;54292.75;5014573;28;20393;-68
2023/05/13 02:46:58;;;;;;;30.27;15.73;;;;;;;-144.73;100.00;54278.41;5014871;28;20077;-67
2023/05/13 02:49:23;;;;;;;23.98;13.63;;;;;;;-144.73;100.00;54280.44;5014989;28;20060;-67
2023/05/13 02:51:49;;;;;;;25.92;14.75;;;;;;;-144.73;100.00;54282.50;5014781;28;20141;-67
2023/05/13 02:54:14;;;;;;;28.55;15.38;;;;;;;-144.73;100.00;54247.59;5032128;28;20025;-68
2023/05/13 02:56:40;;;;;;;27.50;15.35;;;;;;;-144.73;100.00;54300.97;5015434;28;20030;-68
2023/05/13 02:59:05;;;;;;;34.72;15.60;;;;;;;-144.73;100.00;54282.50;5014309;28;20025;-68
2023/05/13 03:01:30;;;;;;;34.47;16.95;;;;;;;-144.73;100.00;54296.88;5031353;28;20041;-67
2023/05/13 03:03:56;;;;;;;24.10;14.70;;;;;;;-144.73;100.00;54313.28;5014880;28;20072;-68
2023/05/13 03:06:21;;;;;;;30.13;15.18;;;;;;;-144.73;100.00;54284.56;5014381;28;20508;-67
2023/05/13 03:08:46;;;;;;;29.95;14.70;;;;;;;-144.73;100.00;54268.13;5014967;28;20047;-68
2023/05/13 03:11:12;;;;;;;31.85;15.52;;;;;;;-144.73;100.00;54313.28;5014812;28;20117;-68
2023/05/13 03:13:37;;;;;;;28.27;15.45;;;;;;;-144.73;100.00;54264.03;5014862;28;20089;-68
2023/05/13 03:16:03;;;;;;;29.92;16.17;;;;;;;-144.73;100.00;54305.06;5014951;28;20503;-67
2023/05/13 03:18:30;;;;;;;25.85;14.63;;;;;;;-144.73;100.00;54286.59;5014534;28;20018;-68
2023/05/13 03:20:55;;;;;;;32.58;16.45;;;;;;;-144.73;100.00;54284.56;5031829;28;20021;-67
2023/05/13 03:23:21;;;;;;;28.23;15.18;;;;;;;-144.73;100.00;54296.88;5014476;28;20013;-67
2023/05/13 03:25:46;;;;;;;28.75;16.33;;;;;;;-144.73;100.00;54280.44;5014384;28;20021;-68
2023/05/13 03:28:11;;;;;;;29.70;16.10;;;;;;;-144.73;100.00;54317.38;5014550;28;20030;-68
2023/05/13 03:30:37;;;;;;;31.02;16.67;;;;;;;-144.73;100.00;54317.38;5031756;28;20052;-68
2023/05/13 03:33:02;;;;;;;32.25;16.02;;;;;;;-144.73;100.00;54268.13;5031962;28;20045;-68
2023/05/13 03:35:27;;;;;;;37.00;15.75;;;;;;;-144.73;100.00;54276.34;5014254;28;20033;-68
2023/05/13 03:37:53;;;;;;;31.30;17.00;;;;;;;-144.73;100.00;54296.88;5031687;28;20034;-68
2023/05/13 03:40:18;;;;;;;29.35;16.27;;;;;;;-144.73;100.00;54280.44;5013424;28;20045;-69
2023/05/13 03:42:43;;;;;;;40.05;16.48;;;;;;;-144.73;100.00;54288.66;5013631;28;20037;-69
2023/05/13 03:45:10;;;;;;;33.05;16.88;;;;;;;-144.73;100.00;54280.44;5014306;28;20037;-69
2023/05/13 03:47:37;;;;;;;26.15;16.70;;;;;;;-144.73;100.00;54313.28;5013775;28;20069;-69
2023/05/13 03:50:03;;;;;;;32.92;17.95;;;;;;;-144.73;100.00;54296.88;5030986;28;20029;-69
2023/05/13 03:52:28;;;;;;;34.70;16.58;;;;;;;-144.73;100.00;54292.75;5013914;28;20103;-69
2023/05/13 03:54:54;;;;;;;31.17;17.35;;;;;;;-144.73;100.00;54259.91;5013346;28;20044;-69
2023/05/13 03:57:19;;;;;;;30.55;17.85;;;;;;;-144.73;100.00;54288.66;5013704;28;20033;-69
2023/05/13 03:59:44;;;;;;;28.90;17.08;;;;;;;-144.73;100.00;54284.56;5013703;28;20022;-69
2023/05/13 04:02:10;;;;;;;28.92;18.50;;;;;;;-144.73;100.00;54313.28;5013397;28;20037;-68
2023/05/13 04:04:35;;;;;;;37.22;18.63;;;;;;;-144.73;100.00;54259.91;5013547;28;20030;-68
2023/05/13 04:07:00;;;;;;;32.63;17.58;;;;;;;-144.73;100.00;54255.81;5014229;28;20049;-69
2023/05/13 04:09:26;;;;;;;30.52;17.90;;;;;;;-144.73;100.00;54313.28;5031480;28;20037;-69
2023/05/13 04:11:51;;;;;;;34.50;17.65;;;;;;;-144.73;100.00;54268.13;5030374;28;20112;-68
2023/05/13 04:14:16;;;;;;;31.08;17.63;;;;;;;-144.73;100.00;54300.97;5013287;28;20039;-68
2023/05/13 04:16:42;;;;;;;38.78;17.17;;;;;;;-144.73;100.00;54300.97;5013953;28;20049;-69
2023/05/13 04:19:07;;;;;;;24.73;15.55;;;;;;;-144.73;100.00;54288.66;5013673;28;20062;-69
2023/05/13 04:21:32;;;;;;;27.13;16.77;;;;;;;-144.73;100.00;54276.34;5013820;28;20026;-67
2023/05/13 04:23:58;;;;;;;34.10;19.58;;;;;;;-144.73;100.00;54321.50;5013961;28;20022;-67
2023/05/13 04:26:24;;;;;;;31.75;20.05;;;;;;;-144.73;100.00;54325.59;5031111;28;20083;-67
2023/05/13 04:28:49;;;;;;;33.75;18.58;;;;;;;-144.73;100.00;54296.88;5013325;28;20101;-67
2023/05/13 04:31:15;;;;;;;45.78;19.77;;;;;;;-144.73;100.00;54288.66;5013773;28;20443;-67
2023/05/13 04:33:40;;;;;;;33.33;17.13;;;;;;;-144.73;100.00;54296.88;5031994;28;20029;-67
2023/05/13 04:36:06;;;;;;;37.25;20.15;;;;;;;-144.73;100.00;54300.97;5033269;28;20067;-67
2023/05/13 04:38:31;;;;;;;33.65;19.83;;;;;;;-144.73;100.00;54311.22;5017693;28;20144;-67
2023/05/13 04:40:56;;;;;;;32.15;18.17;;;;;;;-144.73;100.00;54300.97;5017382;28;20051;-67
2023/05/13 04:43:22;;;;;;;35.42;18.98;;;;;;;-144.73;100.00;54309.19;5017558;28;20048;-67
2023/05/13 04:45:47;;;;;;;33.40;17.58;;;;;;;-144.73;100.00;54313.28;5017737;28;20030;-67
2023/05/13 04:48:13;;;;;;;33.40;17.95;;;;;;;-144.73;100.00;54313.28;5016961;28;20496;-67
2023/05/13 04:50:38;;;;;;;32.55;18.67;;;;;;;-144.73;100.00;54280.44;5017122;28;20353;-67
2023/05/13 04:53:03;;;;;;;28.42;16.52;;;;;;;-144.73;100.00;54319.44;5017641;28;20579;-67
2023/05/13 04:55:29;;;;;;;30.77;16.95;;;;;;;-144.73;100.00;54321.50;5017358;28;20041;-68
2023/05/13 04:57:54;;;;;;;28.90;16.60;;;;;;;-144.73;100.00;54296.88;5017005;28;20044;-68
2023/05/13 05:00:19;;;;;;;35.80;17.63;;;;;;;-144.73;100.00;54346.13;5034454;28;20120;-68
2023/05/13 05:02:45;;;;;;;27.48;16.38;;;;;;;-144.73;100.00;54305.06;5034793;28;20047;-67
2023/05/13 05:05:10;;;;;;;26.05;14.05;;;;;;;-144.73;100.00;54288.66;5016757;28;20031;-68
2023/05/13 05:07:39;;;;;;;24.30;15.93;;;;;;;-144.73;100.00;54288.66;5017196;28;20052;-68
2023/05/13 05:10:06;;;;;;;30.38;15.38;;;;;;;-144.73;100.00;54300.97;5034434;28;20068;-68
2023/05/13 05:12:31;;;;;;;27.73;14.60;;;;;;;-144.73;100.00;54292.75;5016984;28;20060;-68
2023/05/13 05:14:57;;;;;;;28.88;15.07;;;;;;;-144.73;100.00;54288.66;5016903;28;20030;-68
2023/05/13 05:17:22;;;;;;;25.17;14.60;;;;;;;-144.73;100.00;54300.97;5016959;28;20105;-68
2023/05/13 05:19:47;;;;;;;28.33;14.50;;;;;;;-144.73;100.00;54305.06;5034551;28;20484;-68
2023/05/13 05:22:13;;;;;;;33.63;14.55;;;;;;;-144.73;100.00;54329.72;5016367;28;20029;-68
2023/05/13 05:24:38;;;;;;;29.33;13.27;;;;;;;-144.73;100.00;54259.91;5016223;28;20021;-68
2023/05/13 05:27:03;;;;;;;23.25;13.20;;;;;;;-144.73;100.00;54309.19;5016620;28;20029;-67
2023/05/13 05:29:29;;;;;;;21.48;11.77;;;;;;;-144.73;100.00;54317.38;5016147;28;20040;-68
2023/05/13 05:31:54;;;;;;;31.65;13.48;;;;;;;-144.73;100.00;54276.34;5016542;28;20037;-68
2023/05/13 05:34:20;;;;;;;26.75;12.32;;;;;;;-144.73;100.00;54296.88;5016473;28;20040;-69
2023/05/13 05:36:45;;;;;;;21.73;11.63;;;;;;;-144.73;100.00;54288.66;5034684;28;20034;-68
2023/05/13 05:39:10;;;;;;;19.25;11.73;;;;;;;-144.73;100.00;54296.88;5034143;28;20046;-69
2023/05/13 05:41:35;;;;;;;17.52;11.45;;;;;;;-144.73;100.00;54251.72;5015553;28;20029;-68
2023/05/13 05:44:01;;;;;;;24.17;12.27;;;;;;;-144.73;100.00;54309.19;5016676;28;20022;-68
2023/05/13 05:46:26;;;;;;;21.67;11.18;;;;;;;-144.73;100.00;54300.97;5016170;28;20032;-68
2023/05/13 05:48:51;;;;;;;29.35;10.07;;;;;;;-144.73;100.00;54276.34;5015988;28;20025;-68
2023/05/13 05:51:17;;;;;;;19.75;10.95;;;;;;;-144.73;100.00;54288.66;5016406;28;20033;-68
2023/05/13 05:53:42;;;;;;;21.55;9.85;;;;;;;-144.73;100.00;54276.34;5016262;28;20037;-68
2023/05/13 05:56:08;;;;;;;19.17;9.80;;;;;;;-144.73;100.00;54313.28;5015304;28;20029;-69
2023/05/13 05:58:33;;;;;;;22.98;11.10;;;;;;;-144.73;98.48;54280.44;5015585;28;20396;-69
2023/05/13 06:00:59;;;;;;;26.70;10.65;;;;;;;-144.73;98.03;54276.34;5015732;28;20044;-69
2023/05/13 06:03:25;;;;;;;18.52;9.02;;;;;;;-144.73;97.20;54268.13;5015820;28;20021;-68
2023/05/13 06:05:51;;;;;;;16.77;7.97;;;;;;;-144.73;96.23;54284.56;5015233;28;20083;-69
2023/05/13 06:08:17;;;;;;;17.58;8.40;;;;;;;-144.73;95.65;54284.56;5015161;28;20469;-67
2023/05/13 06:10:43;;;;;;;18.55;8.05;;;;;;;-144.73;94.18;54286.59;5015083;28;20021;-68
2023/05/13 06:13:08;;;;;;;21.25;8.02;;;;;;;-144.73;93.91;54276.34;5015329;28;20096;-68
2023/05/13 06:15:34;;;;;;;18.90;7.55;;;;;;;-144.73;93.54;54296.88;5014837;28;20381;-68
2023/05/13 06:18:03;;;;;;;14.45;7.18;;;;;;;-144.73;91.93;54296.88;5032661;28;20061;-68
2023/05/13 06:20:28;;;;;;;13.40;7.65;;;;;;;-144.73;91.83;54298.91;5015163;28;20040;-68
2023/05/13 06:22:54;;;;;;;17.70;8.10;;;;;;;-144.73;89.65;54259.91;5015063;28;20036;-69
2023/05/13 06:25:19;;;;;;;22.13;7.78;;;;;;;-144.73;88.50;54284.56;5014977;28;20078;-68
2023/05/13 06:27:44;;;;;;;18.63;7.00;;;;;;;-144.73;87.91;54257.88;5014530;28;20029;-68
2023/05/13 06:30:10;;;;;;;27.10;7.50;;;;;;;-144.73;88.84;54259.91;5014698;28;20052;-68
2023/05/13 06:32:35;;;;;;;26.20;7.75;;;;;;;-144.73;87.89;54276.34;5014760;28;20036;-68
2023/05/13 06:35:01;;;;;;;22.30;6.88;;;;;;;-144.73;87.56;54288.66;5032120;28;20094;-67
2023/05/13 06:37:26;;;;;;;19.70;6.30;;;;;;;-144.73;84.51;54259.91;5032452;28;20034;-66
2023/05/13 06:39:51;;;;;;;18.35;6.80;;;;;;;-144.73;84.24;54313.28;5014229;28;20560;-67
2023/05/13 06:42:17;;;;;;;19.08;6.90;;;;;;;-144.73;83.43;54305.06;5014705;28;20038;-70
2023/05/13 06:44:42;;;;;;;19.13;6.50;;;;;;;-144.73;83.43;54243.50;5014731;28;20067;-69
2023/05/13 06:47:10;;;;;;;16.73;6.32;;;;;;;-144.73;83.11;54342.03;5014854;28;20041;-67
2023/05/13 06:49:36;;;;;;;15.10;6.22;;;;;;;-144.73;81.68;54264.03;5014350;28;20100;-67
2023/05/13 06:52:01;;;;;;;12.10;5.30;;;;;;;-144.73;82.03;54284.56;5014653;28;20053;-67
2023/05/13 06:54:26;;;;;;;12.60;6.22;;;;;;;-144.73;80.39;54300.97;5032645;28;20055;-67
2023/05/13 06:56:52;;;;;;;19.73;6.00;;;;;;;-144.73;79.72;54327.66;5014401;28;20032;-67
2023/05/13 06:59:19;;;;;;;16.95;5.78;;;;;;;-144.73;79.54;54309.19;5032653;28;20175;-67
2023/05/13 07:01:44;;;;;;;16.23;5.95;;;;;;;-144.73;78.90;54259.91;5014838;28;20029;-67
2023/05/13 07:04:09;;;;;;;11.18;6.57;;;;;;;-144.73;79.28;54255.81;5014632;28;20029;-68
2023/05/13 07:06:35;;;;;;;13.82;5.55;;;;;;;-144.73;78.17;54296.88;5032169;28;20049;-68
2023/05/13 07:09:00;;;;;;;21.70;6.07;;;;;;;-144.73;77.42;54288.66;5014231;28;20021;-68
2023/05/13 07:11:27;;;;;;;17.50;5.75;;;;;;;-144.73;77.98;54235.28;5014294;28;20104;-67
2023/05/13 07:13:53;;;;;;;15.73;5.95;;;;;;;-144.73;77.05;54255.81;5014989;28;20025;-68
2023/05/13 07:16:18;;;;;;;17.10;5.20;;;;;;;-144.73;77.51;54280.44;5014647;28;20044;-67
2023/05/13 07:18:44;;;;;;;19.35;5.72;;;;;;;-144.73;76.16;54235.28;5014555;28;20040;-68
2023/05/13 07:21:09;;;;;;;20.65;5.43;;;;;;;-144.73;76.24;54255.81;5013792;28;20029;-69
2023/05/13 07:23:34;;;;;;;16.55;5.55;;;;;;;-144.73;75.19;54243.50;5032448;28;20033;-66
2023/05/13 07:26:00;;;;;;;11.90;5.55;;;;;;;-144.73;75.85;54276.34;5014072;28;20026;-67
2023/05/13 07:28:26;;;;;;;15.93;6.45;;;;;;;-144.73;75.03;54245.56;5014334;28;20022;-68
2023/05/13 07:30:52;;;;;;;13.85;5.97;;;;;;;-144.73;73.95;54227.09;5014294;28;20095;-69
2023/05/13 07:33:18;;;;;;;17.80;6.65;;;;;;;-144.73;71.77;54249.66;5031833;28;20029;-68
2023/05/13 07:35:43;;;;;;;19.10;5.32;;;;;;;-144.73;71.09;54222.97;5014021;28;20029;-68
2023/05/13 07:38:09;;;;;;;11.13;4.80;;;;;;;-144.73;69.89;54235.28;5031473;28;20117;-68
2023/05/13 07:40:35;;;;;;;18.13;5.65;;;;;;;-144.73;67.96;54231.19;5031784;28;20041;-68
2023/05/13 07:43:01;;;;;;;16.50;4.80;;;;;;;-144.73;64.98;54225.03;5014037;28;20033;-68
2023/05/13 07:45:26;;;;;;;11.93;5.05;;;;;;;-144.73;66.23;54247.59;5013714;28;20037;-68
2023/05/13 07:47:52;;;;;;;27.42;4.82;;;;;;;-144.73;64.79;54227.09;5014159;28;20056;-68
2023/05/13 07:50:17;;;;;;;13.13;4.70;;;;;;;-144.73;64.59;54214.78;5014496;28;20113;-68
2023/05/13 07:52:43;;;;;;;17.80;5.20;;;;;;;-144.73;62.42;54214.78;5031957;28;20045;-68
2023/05/13 07:55:09;;;;;;;17.17;5.03;;;;;;;-144.73;62.10;54218.88;5014046;28;20029;-68
2023/05/13 07:57:35;;;;;;;12.27;5.13;;;;;;;-144.73;61.87;54206.56;5005836;28;20053;-68
2023/05/13 08:00:00;;;;;;;16.42;4.07;;;;;;;-144.73;61.78;54210.66;5008789;28;20052;-69
2023/05/13 08:02:26;;;;;;;10.18;4.55;;;;;;;-144.73;60.67;54218.88;5007723;28;20064;-68
2023/05/13 08:04:51;;;;;;;11.20;4.47;;;;;;;-144.73;57.91;54214.78;5026897;28;20031;-69
2023/05/13 08:07:16;;;;;;;9.43;4.20;;;;;;;-144.73;57.25;54222.97;5008550;28;20045;-68
2023/05/13 08:09:42;;;;;;;12.77;5.03;;;;;;;-144.73;56.75;54206.56;5009270;28;20078;-68
2023/05/13 08:12:07;;;;;;;13.60;4.60;;;;;;;-144.73;56.73;54218.88;5007903;28;20192;-68
2023/05/13 08:14:33;;;;;;;19.52;4.85;;;;;;;-144.73;55.74;54163.47;5008965;28;20033;-70
2023/05/13 08:16:58;;;;;;;15.40;4.82;;;;;;;-144.73;56.07;54218.88;5027782;28;20068;-68
2023/05/13 08:19:24;;;;;;;14.38;4.80;;;;;;;-144.73;54.56;54210.66;5026120;28;20508;-68
2023/05/13 08:21:49;;;;;;;10.02;4.35;;;;;;;-144.73;52.46;54222.97;5008076;28;20025;-68
2023/05/13 08:24:14;;;;;;;9.05;3.58;;;;;;;-144.73;53.75;54202.44;5008680;28;20048;-68
2023/05/13 08:26:40;;;;;;;9.43;3.83;;;;;;;-144.73;54.30;54222.97;5008638;28;20033;-68
2023/05/13 08:29:05;;;;;;;8.88;4.60;;;;;;;-144.73;53.28;54243.50;5009471;28;20077;-68
2023/05/13 08:31:31;;;;;;;12.25;4.10;;;;;;;-144.73;53.70;54214.78;5025747;28;20044;-68
2023/05/13 08:33:56;;;;;;;18.02;4.30;;;;;;;-144.73;52.14;54218.88;5009687;28;20112;-68
2023/05/13 08:36:24;;;;;;;12.10;4.55;;;;;;;-144.73;52.06;54206.56;5008960;28;20489;-67
2023/05/13 08:38:50;;;;;;;11.45;4.35;;;;;;;-144.73;52.34;54218.88;5024833;28;20014;-67
2023/05/13 08:41:15;;;;;;;13.45;4.28;;;;;;;-144.73;51.03;54202.44;5008925;28;20550;-67
2023/05/13 08:43:45;;;;;;;12.40;4.13;;;;;;;-144.73;51.56;54222.97;5008506;28;20040;-67
2023/05/13 08:46:11;;;;;;;15.13;3.97;;;;;;;-144.73;51.61;54173.72;5008119;28;20041;-67
2023/05/13 08:48:41;;;;;;;19.90;4.38;;;;;;;-144.73;50.42;54247.59;5027328;28;20021;-68
2023/05/13 08:51:07;;;;;;;11.10;3.80;;;;;;;-144.73;50.23;54235.28;5008139;28;20021;-68
2023/05/13 08:53:38;;;;;;;10.15;4.25;;;;;;;-144.73;49.76;54192.19;5025947;28;20306;-68
2023/05/13 08:56:05;;;;;;;11.17;4.20;;;;;;;-144.73;49.91;54235.28;5008748;28;20021;-69
2023/05/13 08:58:30;;;;;;;11.82;4.40;;;;;;;-144.73;49.92;54169.63;5008346;28;20075;-69
2023/05/13 09:00:57;;;;;;;11.75;4.28;;;;;;;-144.73;49.29;54194.25;5026638;28;20108;-68
2023/05/13 09:03:24;;;;;;;19.30;4.72;;;;;;;-144.73;48.02;54235.28;5027508;28;20026;-69
2023/05/13 09:05:49;;;;;;;11.00;3.92;;;;;;;-144.73;46.13;54202.44;5009272;28;20053;-69
2023/05/13 09:08:15;;;;;;;16.73;4.22;;;;;;;-144.73;46.73;54231.19;5009065;28;20029;-70
2023/05/13 09:10:41;;;;;;;6.75;3.97;;;;;;;-144.73;46.81;54165.50;5008769;28;20028;-69
2023/05/13 09:13:06;;;;;;;12.27;4.43;;;;;;;-144.73;47.19;54196.28;5007297;28;20076;-68
2023/05/13 09:15:32;;;;;;;18.40;4.25;;;;;;;-144.73;47.96;54210.66;5008606;28;20584;-69
2023/05/13 09:18:06;;;;;;;12.65;3.90;;;;;;;-144.73;47.01;54190.13;5008771;28;20033;-68
2023/05/13 09:20:32;;;;;;;11.43;4.47;;;;;;;-144.73;47.09;54218.88;5008226;28;20021;-68
2023/05/13 09:23:02;;;;;;;13.82;4.22;;;;;;;-144.73;44.72;54120.34;5011148;28;20029;-68
2023/05/13 09:25:27;;;;;;;8.00;3.22;;;;;;;-144.73;44.27;54153.19;5012728;28;20424;-69
2023/05/13 09:28:33;;;;;;;;;;;;;;;;;;;;;
2023/05/13 09:31:21;;;;;;;19.55;3.65;;;;;;;-144.73;44.15;54171.66;5032508;28;20029;-71
2023/05/13 09:33:52;;;;;;;7.65;3.53;;;;;;;-144.73;43.79;54169.63;5015267;28;20033;-69
2023/05/13 09:36:21;;;;;;;14.65;3.72;;;;;;;-144.73;44.10;54202.44;5014538;28;20052;-70
2023/05/13 09:38:51;;;;;;;9.38;3.97;;;;;;;-144.73;43.89;54190.13;5015384;28;20025;-70
2023/05/13 09:41:18;;;;;;;24.17;3.83;;;;;;;-144.73;43.75;54218.88;5015032;28;20029;-69
2023/05/13 09:43:44;;;;;;;22.27;3.53;;;;;;;-144.73;43.63;54202.44;5014497;28;20029;-70
2023/05/13 09:46:09;;;;;;;11.20;3.45;;;;;;;-144.73;43.47;54231.19;5015551;28;20028;-70
2023/05/13 09:48:36;;;;;;;10.02;3.72;;;;;;;-144.73;41.78;54194.25;5016333;28;20069;-69
2023/05/13 09:51:05;;;;;;;20.25;3.72;;;;;;;-144.73;40.96;54179.88;5013017;28;20026;-70
2023/05/13 09:53:31;;;;;;;12.77;3.42;;;;;;;-144.73;41.88;54116.25;5011877;28;20075;-70
2023/05/13 09:55:58;;;;;;;5.80;3.63;;;;;;;-144.73;41.52;54136.78;5012688;28;20037;-71
2023/05/13 09:58:27;;;;;;;7.70;3.63;;;;;;;-144.73;41.71;54132.69;5013146;28;20071;-70
2023/05/13 10:00:52;;;;;;;24.00;4.75;;;;;;;-144.73;41.16;54161.41;5010673;28;20022;-70
2023/05/13 10:03:18;;;;;;;11.60;3.92;;;;;;;-144.73;41.16;54145.00;5014965;28;20034;-70
2023/05/13 10:05:43;;;;;;;13.07;3.50;;;;;;;-144.73;40.45;54171.66;5015221;28;20052;-70
2023/05/13 10:08:11;;;;;;;11.50;3.58;;;;;;;-144.73;40.63;54206.56;5012454;28;20497;-70
2023/05/13 10:10:37;;;;;;;12.85;3.67;;;;;;;-144.73;39.23;54198.34;5030829;28;20028;-70
2023/05/13 10:13:14;;;;;;;17.33;3.70;;;;;;;-144.73;37.59;54161.41;5013203;28;20042;-70
2023/05/13 10:15:48;;;;;;;7.88;3.40;;;;;;;-144.73;38.79;54210.66;5030717;28;20029;-70
2023/05/13 10:18:16;;;;;;;11.30;3.40;;;;;;;-144.73;38.22;54181.94;5012809;28;20034;-70
2023/05/13 10:20:42;;;;;;;15.68;4.25;;;;;;;-144.73;37.88;54181.94;5014350;28;20037;-70
2023/05/13 10:23:09;;;;;;;11.75;3.70;;;;;;;-144.73;38.97;54132.69;5014143;28;20037;-70
2023/05/13 10:25:35;;;;;;;19.30;4.07;;;;;;;-144.73;38.02;54161.41;5012901;28;20048;-70
2023/05/13 10:28:03;;;;;;;14.85;3.45;;;;;;;-144.73;36.25;54169.63;5013859;28;20041;-71
2023/05/13 10:30:31;;;;;;;9.05;3.17;;;;;;;-144.73;35.53;54177.81;5012131;28;20049;-71
2023/05/13 10:33:00;;;;;;;13.60;3.42;;;;;;;-144.73;35.56;54173.72;5011541;28;20044;-70
2023/05/13 10:35:30;;;;;;;8.65;3.22;;;;;;;-144.73;36.02;54177.81;5014384;28;20104;-70
2023/05/13 10:38:09;;;;;;;22.92;3.22;;;;;;;-144.73;33.98;54145.00;5011782;28;20087;-70
2023/05/13 10:41:09;;;;;;;7.07;2.88;;;;;;;-144.73;33.39;54122.41;5029316;28;20056;-71
2023/05/13 10:43:35;;;;;;;9.27;3.47;;;;;;;-144.73;32.23;54177.81;5010871;28;20355;-70
2023/05/13 10:46:03;;;;;;;12.52;3.28;;;;;;;-144.73;31.72;54177.81;5011250;28;20031;-70
2023/05/13 10:48:49;;;;;;;9.63;3.17;;;;;;;-144.73;33.14;54153.19;5011866;28;20041;-70
2023/05/13 10:51:16;;;;;;;5.47;3.20;;;;;;;-144.73;33.56;54128.56;5029180;28;20113;-70
2023/05/13 10:53:48;;;;;;;9.07;3.85;;;;;;;-144.73;32.95;54128.56;5012212;28;20052;-70
2023/05/13 10:56:14;;;;;;;5.53;3.67;;;;;;;-144.73;33.11;54202.44;5011385;28;20038;-69
2023/05/13 10:58:39;;;;;;;19.48;3.47;;;;;;;-144.73;32.08;54169.63;5010973;28;20045;-69
2023/05/13 11:01:13;;;;;;;13.23;2.75;;;;;;;-144.73;33.11;54132.69;5012564;28;20025;-70
2023/05/13 11:03:39;;;;;;;22.75;4.22;;;;;;;-144.73;32.40;54128.56;5010874;28;20034;-71